Time;durP1;ratioP1;P1;durP2;ratioP2;P2;SDS_P1;SDS_P2;PMS_P1;PMS_P2;Temp;Humidity;BMP_temperature;BMP_pressure;BME280_temperature;BME280_humidity;BME280_pressure;Samples;Min_cycle;Max_cycle;Signal;HPM_P1;HPM_P2
2023/04/22 00:01:46;;;;;;;10.00;5.38;;;;;;;;;;7375580;19;20379;-73
2023/04/22 00:04:12;;;;;;;9.65;5.07;;;;;;;;;;7375960;19;20007;-73
2023/04/22 00:06:37;;;;;;;12.40;5.55;;;;;;;;;;7394944;19;20468;-74
2023/04/22 00:09:02;;;;;;;9.98;5.80;;;;;;;;;;7371565;19;20010;-73
2023/04/22 00:11:28;;;;;;;9.35;5.53;;;;;;;;;;7371062;19;20465;-72
2023/04/22 00:13:53;;;;;;;11.70;6.05;;;;;;;;;;7370200;19;20436;-73
2023/04/22 00:16:18;;;;;;;14.50;6.05;;;;;;;;;;7369810;19;20015;-73
2023/04/22 00:18:44;;;;;;;14.57;6.22;;;;;;;;;;7393537;19;20086;-72
2023/04/22 00:21:09;;;;;;;11.10;6.05;;;;;;;;;;7371071;19;20070;-72
2023/04/22 00:23:34;;;;;;;8.73;5.70;;;;;;;;;;7368831;19;20010;-72
2023/04/22 00:26:00;;;;;;;12.60;6.30;;;;;;;;;;7368854;19;20409;-72
2023/04/22 00:28:26;;;;;;;10.23;5.93;;;;;;;;;;7365393;19;20002;-72
2023/04/22 00:30:51;;;;;;;10.40;5.78;;;;;;;;;;7365907;19;20690;-73
2023/04/22 00:33:17;;;;;;;15.30;6.35;;;;;;;;;;7386765;19;20476;-73
2023/04/22 00:35:43;;;;;;;16.38;6.88;;;;;;;;;;7365448;19;20127;-73
2023/04/22 00:38:09;;;;;;;11.75;6.07;;;;;;;;;;7363955;19;20017;-73
2023/04/22 00:40:34;;;;;;;13.40;6.78;;;;;;;;;;7367809;19;20492;-73
2023/04/22 00:43:01;;;;;;;10.40;6.35;;;;;;;;;;7366432;19;20058;-73
2023/04/22 00:45:27;;;;;;;12.18;7.30;;;;;;;;;;7391243;19;20060;-72
2023/04/22 00:47:52;;;;;;;11.10;6.15;;;;;;;;;;7368483;19;20006;-72
2023/04/22 00:50:18;;;;;;;11.07;6.10;;;;;;;;;;7368589;19;20094;-72
2023/04/22 00:52:43;;;;;;;10.82;6.57;;;;;;;;;;7369433;19;20097;-73
2023/04/22 00:55:09;;;;;;;12.05;6.43;;;;;;;;;;7368075;19;20018;-72
2023/04/22 00:57:35;;;;;;;19.80;7.03;;;;;;;;;;7389183;19;20074;-72
2023/04/22 01:00:01;;;;;;;13.10;7.18;;;;;;;;;;7367696;19;20014;-72
2023/04/22 01:02:27;;;;;;;11.85;6.30;;;;;;;;;;7366585;19;20010;-73
2023/04/22 01:04:55;;;;;;;11.27;6.53;;;;;;;;;;7366555;19;20002;-71
2023/04/22 01:07:20;;;;;;;11.05;7.15;;;;;;;;;;7368396;19;20006;-71
2023/04/22 01:09:46;;;;;;;11.38;6.50;;;;;;;;;;7391386;19;20009;-73
2023/04/22 01:12:12;;;;;;;12.30;7.22;;;;;;;;;;7367096;19;20388;-73
2023/04/22 01:14:37;;;;;;;10.85;6.60;;;;;;;;;;7364382;19;20030;-73
2023/04/22 01:17:03;;;;;;;12.27;6.70;;;;;;;;;;7366175;19;20009;-73
2023/04/22 01:19:28;;;;;;;12.05;6.97;;;;;;;;;;7367068;19;20006;-73
2023/04/22 01:21:54;;;;;;;11.45;6.55;;;;;;;;;;7368469;19;20402;-74
2023/04/22 01:24:20;;;;;;;10.55;6.60;;;;;;;;;;7389273;19;20009;-73
2023/04/22 01:26:46;;;;;;;12.95;6.50;;;;;;;;;;7366867;19;20003;-73
2023/04/22 01:29:13;;;;;;;17.25;6.53;;;;;;;;;;7367378;19;20003;-73
2023/04/22 01:31:38;;;;;;;14.27;7.15;;;;;;;;;;7366212;19;20481;-72
2023/04/22 01:34:04;;;;;;;14.35;7.55;;;;;;;;;;7370195;19;19999;-72
2023/04/22 01:36:31;;;;;;;11.30;6.32;;;;;;;;;;7395048;19;20386;-72
2023/04/22 01:38:57;;;;;;;14.20;6.82;;;;;;;;;;7372363;19;20007;-72
2023/04/22 01:41:23;;;;;;;12.38;7.10;;;;;;;;;;7369559;19;20010;-72
2023/04/22 01:43:50;;;;;;;14.85;7.22;;;;;;;;;;7370214;19;20375;-72
2023/04/22 01:46:16;;;;;;;12.70;6.60;;;;;;;;;;7370216;19;20007;-72
2023/04/22 01:48:42;;;;;;;13.45;6.57;;;;;;;;;;7393570;19;20487;-72
2023/04/22 01:51:07;;;;;;;16.45;6.65;;;;;;;;;;7371817;19;20002;-72
2023/04/22 01:53:33;;;;;;;12.50;6.60;;;;;;;;;;7369194;19;20472;-72
2023/04/22 01:55:58;;;;;;;11.32;6.45;;;;;;;;;;7369438;19;20006;-73
2023/04/22 01:58:28;;;;;;;15.75;7.35;;;;;;;;;;7373876;19;20041;-72
2023/04/22 02:00:53;;;;;;;12.77;6.85;;;;;;;;;;7375422;19;20020;-72
2023/04/22 02:03:18;;;;;;;10.98;6.85;;;;;;;;;;7396585;19;20006;-72
2023/04/22 02:05:43;;;;;;;11.27;6.43;;;;;;;;;;7372875;19;20468;-72
2023/04/22 02:08:09;;;;;;;13.63;7.50;;;;;;;;;;7372551;19;20078;-72
2023/04/22 02:10:34;;;;;;;10.02;6.97;;;;;;;;;;7375279;19;20010;-72
2023/04/22 02:13:00;;;;;;;12.48;6.93;;;;;;;;;;7381425;19;20050;-73
2023/04/22 02:15:25;;;;;;;13.10;6.95;;;;;;;;;;7398250;19;20130;-72
2023/04/22 02:17:51;;;;;;;15.93;7.20;;;;;;;;;;7375023;19;20074;-72
2023/04/22 02:20:17;;;;;;;12.68;7.10;;;;;;;;;;7376914;19;20006;-72
2023/04/22 02:22:43;;;;;;;13.68;6.93;;;;;;;;;;7400959;19;20021;-72
2023/04/22 02:25:09;;;;;;;14.93;6.28;;;;;;;;;;7400748;19;20495;-72
2023/04/22 02:27:35;;;;;;;14.73;7.03;;;;;;;;;;7420456;19;19999;-72
2023/04/22 02:30:00;;;;;;;13.57;6.70;;;;;;;;;;7375052;19;20002;-72
2023/04/22 02:32:26;;;;;;;12.18;6.72;;;;;;;;;;7376912;19;20006;-72
2023/04/22 02:34:51;;;;;;;12.48;6.72;;;;;;;;;;7374267;19;20536;-72
2023/04/22 02:37:17;;;;;;;11.63;7.13;;;;;;;;;;7370908;19;20014;-72
2023/04/22 02:39:43;;;;;;;12.95;6.65;;;;;;;;;;7395054;19;20007;-72
2023/04/22 02:42:08;;;;;;;11.68;6.75;;;;;;;;;;7375968;19;20013;-72
2023/04/22 02:44:33;;;;;;;12.05;6.85;;;;;;;;;;7375179;19;20365;-72
2023/04/22 02:46:59;;;;;;;18.77;6.78;;;;;;;;;;7371615;19;20009;-73
2023/04/22 02:49:24;;;;;;;9.30;6.57;;;;;;;;;;7372417;19;20006;-72
2023/04/22 02:51:49;;;;;;;11.25;6.97;;;;;;;;;;7392667;19;20003;-75
2023/04/22 02:54:15;;;;;;;12.93;6.35;;;;;;;;;;7376563;19;20396;-73
2023/04/22 02:56:40;;;;;;;11.05;6.78;;;;;;;;;;7370068;19;20473;-73
2023/04/22 02:59:05;;;;;;;11.55;6.32;;;;;;;;;;7371843;19;20002;-72
2023/04/22 03:01:31;;;;;;;10.80;6.75;;;;;;;;;;7370655;19;20476;-73
2023/04/22 03:03:56;;;;;;;13.75;7.05;;;;;;;;;;7371218;19;20007;-72
2023/04/22 03:06:21;;;;;;;11.35;6.10;;;;;;;;;;7390944;19;20003;-72
2023/04/22 03:08:47;;;;;;;11.73;6.85;;;;;;;;;;7369800;19;20003;-72
2023/04/22 03:11:12;;;;;;;12.95;6.75;;;;;;;;;;7371354;19;20531;-72
2023/04/22 03:13:38;;;;;;;14.52;7.13;;;;;;;;;;7369928;19;20049;-72
2023/04/22 03:16:03;;;;;;;11.20;6.38;;;;;;;;;;7371493;19;20023;-73
2023/04/22 03:18:28;;;;;;;10.50;6.20;;;;;;;;;;7393899;19;20066;-72
2023/04/22 03:20:54;;;;;;;14.43;6.68;;;;;;;;;;7370174;19;20003;-72
2023/04/22 03:23:19;;;;;;;14.07;6.43;;;;;;;;;;7369297;19;20007;-73
2023/04/22 03:25:45;;;;;;;13.48;6.65;;;;;;;;;;7371767;19;20019;-72
2023/04/22 03:28:10;;;;;;;12.48;6.00;;;;;;;;;;7375411;19;20137;-72
2023/04/22 03:30:36;;;;;;;13.25;6.85;;;;;;;;;;7397434;19;19999;-72
2023/04/22 03:33:01;;;;;;;12.02;6.80;;;;;;;;;;7373412;19;19998;-72
2023/04/22 03:35:26;;;;;;;10.60;6.13;;;;;;;;;;7369589;19;20441;-72
2023/04/22 03:37:52;;;;;;;12.13;6.50;;;;;;;;;;7379424;19;20551;-72
2023/04/22 03:40:18;;;;;;;11.05;6.20;;;;;;;;;;7385698;19;20005;-73
2023/04/22 03:42:43;;;;;;;14.20;6.38;;;;;;;;;;7402934;19;20002;-72
2023/04/22 03:45:09;;;;;;;11.23;6.18;;;;;;;;;;7372223;19;20007;-72
2023/04/22 03:47:34;;;;;;;10.15;5.78;;;;;;;;;;7367185;19;20008;-71
2023/04/22 03:49:59;;;;;;;13.02;6.38;;;;;;;;;;7370829;19;20354;-71
2023/04/22 03:52:25;;;;;;;13.15;6.55;;;;;;;;;;7373486;19;20017;-72
2023/04/22 03:54:50;;;;;;;14.45;7.40;;;;;;;;;;7385907;19;20003;-75
2023/04/22 03:57:15;;;;;;;14.05;7.13;;;;;;;;;;7380589;19;20035;-72
2023/04/22 03:59:40;;;;;;;11.50;6.63;;;;;;;;;;7368894;19;20081;-73
2023/04/22 04:02:06;;;;;;;14.98;7.18;;;;;;;;;;7369412;19;20006;-73
2023/04/22 04:04:33;;;;;;;11.00;6.38;;;;;;;;;;7370774;19;20006;-73
2023/04/22 04:06:59;;;;;;;13.50;6.35;;;;;;;;;;7375543;19;20021;-72
2023/04/22 04:09:24;;;;;;;15.93;7.07;;;;;;;;;;7395778;19;20039;-72
2023/04/22 04:11:50;;;;;;;12.65;6.82;;;;;;;;;;7371072;19;20070;-72
2023/04/22 04:14:15;;;;;;;9.75;5.90;;;;;;;;;;7366995;19;20078;-72
2023/04/22 04:16:40;;;;;;;11.20;5.82;;;;;;;;;;7367880;19;20082;-73
2023/04/22 04:19:06;;;;;;;11.02;6.43;;;;;;;;;;7367674;19;20066;-72
2023/04/22 04:21:32;;;;;;;9.45;6.43;;;;;;;;;;7390979;19;20003;-72
2023/04/22 04:23:58;;;;;;;12.23;6.53;;;;;;;;;;7368162;19;20363;-72
2023/04/22 04:26:24;;;;;;;10.20;5.80;;;;;;;;;;7365984;19;20006;-73
2023/04/22 04:28:49;;;;;;;12.20;6.55;;;;;;;;;;7366382;19;20049;-73
2023/04/22 04:31:14;;;;;;;12.32;6.47;;;;;;;;;;7369099;19;20091;-73
2023/04/22 04:33:40;;;;;;;11.50;6.25;;;;;;;;;;7388758;19;20013;-72
2023/04/22 04:36:07;;;;;;;12.45;6.47;;;;;;;;;;7366547;19;20007;-73
2023/04/22 04:38:33;;;;;;;12.55;6.93;;;;;;;;;;7367106;19;20010;-72
2023/04/22 04:40:58;;;;;;;12.30;7.07;;;;;;;;;;7369322;19;20011;-72
2023/04/22 04:43:24;;;;;;;11.68;6.35;;;;;;;;;;7368380;19;20019;-73
2023/04/22 04:45:50;;;;;;;11.63;7.10;;;;;;;;;;7386385;19;20011;-72
2023/04/22 04:48:18;;;;;;;11.80;6.65;;;;;;;;;;7382236;19;20507;-73
2023/04/22 04:50:44;;;;;;;14.38;6.88;;;;;;;;;;7368107;19;20358;-72
2023/04/22 04:53:10;;;;;;;9.32;6.20;;;;;;;;;;7370836;19;20032;-72
2023/04/22 04:55:36;;;;;;;13.45;6.22;;;;;;;;;;7367684;19;20015;-73
2023/04/22 04:58:01;;;;;;;11.05;6.60;;;;;;;;;;7371279;19;20006;-72
2023/04/22 05:00:27;;;;;;;12.05;6.72;;;;;;;;;;7391671;19;20489;-72
2023/04/22 05:02:52;;;;;;;10.93;6.40;;;;;;;;;;7369714;19;20010;-72
2023/04/22 05:05:18;;;;;;;10.38;6.45;;;;;;;;;;7370134;19;20376;-72
2023/04/22 05:07:43;;;;;;;11.95;6.72;;;;;;;;;;7367223;19;20014;-72
2023/04/22 05:10:09;;;;;;;10.57;6.13;;;;;;;;;;7370684;19;20022;-72
2023/04/22 05:12:35;;;;;;;12.57;6.72;;;;;;;;;;7391215;19;20030;-72
2023/04/22 05:15:00;;;;;;;12.63;6.70;;;;;;;;;;7366928;19;20010;-72
2023/04/22 05:17:26;;;;;;;10.93;6.40;;;;;;;;;;7369533;19;20045;-72
2023/04/22 05:19:52;;;;;;;13.40;5.97;;;;;;;;;;7370305;19;20586;-71
2023/04/22 05:22:17;;;;;;;11.23;5.82;;;;;;;;;;7370018;19;20073;-72
2023/04/22 05:24:42;;;;;;;12.48;6.47;;;;;;;;;;7389653;19;20066;-72
2023/04/22 05:27:08;;;;;;;8.82;5.75;;;;;;;;;;7367975;19;20314;-72
2023/04/22 05:29:34;;;;;;;9.05;5.60;;;;;;;;;;7369092;19;20007;-72
2023/04/22 05:31:59;;;;;;;9.13;5.80;;;;;;;;;;7374790;19;20019;-72
2023/04/22 05:34:25;;;;;;;11.25;5.82;;;;;;;;;;7369429;19;20073;-72
2023/04/22 05:36:50;;;;;;;13.45;5.93;;;;;;;;;;7388292;19;20006;-73
2023/04/22 05:39:15;;;;;;;12.30;5.75;;;;;;;;;;7389508;19;20002;-72
2023/04/22 05:41:41;;;;;;;8.32;5.18;;;;;;;;;;7377614;19;20010;-72
2023/04/22 05:44:06;;;;;;;13.18;5.15;;;;;;;;;;7371111;19;20487;-72
2023/04/22 05:46:32;;;;;;;9.75;4.75;;;;;;;;;;7365598;19;20425;-72
2023/04/22 05:48:57;;;;;;;9.80;4.72;;;;;;;;;;7372547;19;20010;-72
2023/04/22 05:51:22;;;;;;;8.25;4.40;;;;;;;;;;7394301;19;20022;-72
2023/04/22 05:53:48;;;;;;;7.35;4.55;;;;;;;;;;7368107;19;20006;-72
2023/04/22 05:56:14;;;;;;;9.32;4.78;;;;;;;;;;7366924;19;20010;-73
2023/04/22 05:58:39;;;;;;;9.25;4.53;;;;;;;;;;7367124;19;20014;-73
2023/04/22 06:01:04;;;;;;;14.57;6.78;;;;;;;;;;7369207;19;20022;-73
2023/04/22 06:03:30;;;;;;;8.90;4.60;;;;;;;;;;7389042;19;19999;-73
2023/04/22 06:05:56;;;;;;;12.98;4.55;;;;;;;;;;7366763;19;20007;-71
2023/04/22 06:08:21;;;;;;;8.02;4.35;;;;;;;;;;7367430;19;20494;-71
2023/04/22 06:10:46;;;;;;;11.55;4.45;;;;;;;;;;7369717;19;20006;-73
2023/04/22 06:13:11;;;;;;;10.00;4.15;;;;;;;;;;7369992;19;20032;-72
2023/04/22 06:15:37;;;;;;;6.72;4.22;;;;;;;;;;7389241;19;20062;-72
2023/04/22 06:18:02;;;;;;;8.90;4.60;;;;;;;;;;7363750;19;20082;-72
2023/04/22 06:20:28;;;;;;;8.75;4.10;;;;;;;;;;7364321;19;20037;-72
2023/04/22 06:22:53;;;;;;;11.70;4.85;;;;;;;;;;7368403;19;20026;-73
2023/04/22 06:25:18;;;;;;;7.38;4.55;;;;;;;;;;7367324;19;20013;-73
2023/04/22 06:27:43;;;;;;;9.15;4.43;;;;;;;;;;7387314;19;20010;-73
2023/04/22 06:30:10;;;;;;;8.82;4.28;;;;;;;;;;7366291;19;20043;-73
2023/04/22 06:32:36;;;;;;;7.88;4.32;;;;;;;;;;7355118;19;20608;-71
2023/04/22 06:35:02;;;;;;;9.18;4.28;;;;;;;;;;7363476;19;20011;-70
2023/04/22 06:37:27;;;;;;;9.55;4.07;;;;;;;;;;7363833;19;20039;-74
2023/04/22 06:39:52;;;;;;;13.98;4.28;;;;;;;;;;7366466;19;20011;-74
2023/04/22 06:42:18;;;;;;;9.93;4.60;;;;;;;;;;7387975;19;20017;-74
2023/04/22 06:44:43;;;;;;;10.55;3.78;;;;;;;;;;7369952;19;20022;-74
2023/04/22 06:47:08;;;;;;;6.95;4.03;;;;;;;;;;7370815;19;20007;-72
2023/04/22 06:49:37;;;;;;;8.00;3.95;;;;;;;;;;7369806;19;20048;-75
2023/04/22 06:52:02;;;;;;;8.45;3.95;;;;;;;;;;7366254;19;20006;-74
2023/04/22 06:54:28;;;;;;;9.68;4.43;;;;;;;;;;7392921;19;20775;-76
2023/04/22 06:56:53;;;;;;;6.60;3.72;;;;;;;;;;7369104;19;20709;-72
2023/04/22 06:59:19;;;;;;;8.68;4.60;;;;;;;;;;7367286;19;20002;-71
2023/04/22 07:01:44;;;;;;;6.43;3.50;;;;;;;;;;7371315;19;20019;-71
2023/04/22 07:04:10;;;;;;;6.07;3.90;;;;;;;;;;7370565;19;20040;-72
2023/04/22 07:06:35;;;;;;;6.45;3.58;;;;;;;;;;7390556;19;20007;-71
2023/04/22 07:09:00;;;;;;;5.50;3.55;;;;;;;;;;7372136;19;20313;-72
2023/04/22 07:11:26;;;;;;;6.32;4.30;;;;;;;;;;7373382;19;20073;-71
2023/04/22 07:13:51;;;;;;;6.85;3.63;;;;;;;;;;7373684;19;20031;-71
2023/04/22 07:16:17;;;;;;;6.80;4.10;;;;;;;;;;7374829;19;20507;-72
2023/04/22 07:18:42;;;;;;;6.82;3.80;;;;;;;;;;7405962;19;20003;-73
2023/04/22 07:21:07;;;;;;;6.70;3.60;;;;;;;;;;7379418;19;20066;-72
2023/04/22 07:23:33;;;;;;;6.38;4.00;;;;;;;;;;7374954;19;20519;-71
2023/04/22 07:25:58;;;;;;;7.28;3.65;;;;;;;;;;7381310;19;20014;-72
2023/04/22 07:28:24;;;;;;;11.65;5.40;;;;;;;;;;7383104;19;20457;-72
2023/04/22 07:30:49;;;;;;;6.47;4.05;;;;;;;;;;7397659;19;20003;-72
2023/04/22 07:33:15;;;;;;;6.70;4.20;;;;;;;;;;7377365;19;20014;-72
2023/04/22 07:35:40;;;;;;;6.88;3.95;;;;;;;;;;7375715;19;20354;-72
2023/04/22 07:38:05;;;;;;;9.50;4.72;;;;;;;;;;7378377;19;20053;-72
2023/04/22 07:40:31;;;;;;;7.80;4.35;;;;;;;;;;7377882;19;20005;-73
2023/04/22 07:42:56;;;;;;;7.25;3.88;;;;;;;;;;7375593;19;19998;-74
2023/04/22 07:45:21;;;;;;;10.80;4.45;;;;;;;;;;7394993;19;20006;-73
2023/04/22 07:47:47;;;;;;;7.88;3.95;;;;;;;;;;7369431;19;20010;-72
2023/04/22 07:50:12;;;;;;;7.32;4.30;;;;;;;;;;7374788;19;20495;-73
2023/04/22 07:52:38;;;;;;;5.47;4.00;;;;;;;;;;7373534;19;20010;-73
2023/04/22 07:55:03;;;;;;;6.50;4.20;;;;;;;;;;7374610;19;19995;-73
2023/04/22 07:57:29;;;;;;;6.82;3.95;;;;;;;;;;7392598;19;20013;-73
2023/04/22 07:59:54;;;;;;;5.47;3.70;;;;;;;;;;7373856;19;19991;-71
2023/04/22 08:02:19;;;;;;;6.43;4.22;;;;;;;;;;7374717;19;20053;-74
2023/04/22 08:04:45;;;;;;;7.38;4.15;;;;;;;;;;7374502;19;20012;-74
2023/04/22 08:07:10;;;;;;;6.75;4.15;;;;;;;;;;7373229;19;19999;-74
2023/04/22 08:09:35;;;;;;;7.07;4.47;;;;;;;;;;7395359;19;20014;-72
2023/04/22 08:12:02;;;;;;;8.93;4.53;;;;;;;;;;7370978;19;20318;-72
2023/04/22 08:14:27;;;;;;;7.30;4.68;;;;;;;;;;7369902;19;20010;-72
2023/04/22 08:16:53;;;;;;;7.93;4.70;;;;;;;;;;7366080;19;20502;-71
2023/04/22 08:19:19;;;;;;;9.52;4.75;;;;;;;;;;7370981;19;20492;-72
2023/04/22 08:21:45;;;;;;;8.40;5.07;;;;;;;;;;7397880;19;19995;-72
2023/04/22 08:24:10;;;;;;;7.55;4.93;;;;;;;;;;7372507;19;20341;-71
2023/04/22 08:26:37;;;;;;;9.38;5.07;;;;;;;;;;7374288;19;20002;-71
2023/04/22 08:29:03;;;;;;;8.73;5.03;;;;;;;;;;7377730;19;20005;-71
2023/04/22 08:31:28;;;;;;;9.30;5.13;;;;;;;;;;7377152;19;20457;-71
2023/04/22 08:33:54;;;;;;;11.80;5.20;;;;;;;;;;7379570;19;20009;-73
2023/04/22 08:36:21;;;;;;;9.65;5.38;;;;;;;;;;7409803;19;20029;-72
2023/04/22 08:38:47;;;;;;;11.25;4.95;;;;;;;;;;7388898;19;20066;-72
2023/04/22 08:41:13;;;;;;;9.75;5.40;;;;;;;;;;7376058;19;20065;-72
2023/04/22 08:43:38;;;;;;;9.05;5.82;;;;;;;;;;7371488;19;20010;-72
2023/04/22 08:46:04;;;;;;;10.20;5.95;;;;;;;;;;7371367;19;20003;-72
2023/04/22 08:48:31;;;;;;;9.95;6.20;;;;;;;;;;7393084;19;20042;-72
2023/04/22 08:50:57;;;;;;;9.23;5.88;;;;;;;;;;7368761;19;20010;-72
2023/04/22 08:53:22;;;;;;;9.40;5.25;;;;;;;;;;7369940;19;20007;-71
2023/04/22 08:55:49;;;;;;;8.93;5.70;;;;;;;;;;7374162;19;20484;-72
2023/04/22 08:58:14;;;;;;;8.40;5.53;;;;;;;;;;7379445;19;19999;-73
2023/04/22 09:00:44;;;;;;;8.95;6.00;;;;;;;;;;7398758;19;20449;-72
2023/04/22 09:03:10;;;;;;;8.90;6.32;;;;;;;;;;7377583;19;20009;-72
2023/04/22 09:05:38;;;;;;;8.15;5.43;;;;;;;;;;7369956;19;20009;-71
2023/04/22 09:08:04;;;;;;;9.18;5.43;;;;;;;;;;7369573;19;19999;-71
2023/04/22 09:10:30;;;;;;;8.27;6.00;;;;;;;;;;7370757;19;20006;-72
2023/04/22 09:12:56;;;;;;;11.25;5.90;;;;;;;;;;7370417;19;20479;-73
2023/04/22 09:15:21;;;;;;;8.77;5.75;;;;;;;;;;7391671;19;19998;-72
2023/04/22 09:17:50;;;;;;;8.48;5.20;;;;;;;;;;7367704;19;20007;-71
2023/04/22 09:20:16;;;;;;;8.52;5.43;;;;;;;;;;7369049;19;20019;-72
2023/04/22 09:22:45;;;;;;;8.40;4.82;;;;;;;;;;7371216;19;20013;-71
2023/04/22 09:25:24;;;;;;;7.75;4.95;;;;;;;;;;7371719;19;20016;-72
2023/04/22 09:27:50;;;;;;;7.47;5.32;;;;;;;;;;7391440;19;20505;-72
2023/04/22 09:30:27;;;;;;;7.93;4.90;;;;;;;;;;7386096;19;19999;-71
2023/04/22 09:33:01;;;;;;;8.07;4.95;;;;;;;;;;7370676;19;20002;-71
2023/04/22 09:35:27;;;;;;;7.95;5.38;;;;;;;;;;7367626;19;19999;-71
2023/04/22 09:37:53;;;;;;;8.15;4.82;;;;;;;;;;7367583;19;20006;-72
2023/04/22 09:40:19;;;;;;;7.85;4.90;;;;;;;;;;7369183;19;20016;-71
2023/04/22 09:42:49;;;;;;;7.95;4.53;;;;;;;;;;7392606;19;20003;-71
2023/04/22 09:45:26;;;;;;;9.32;5.07;;;;;;;;;;7369151;19;20019;-72
2023/04/22 09:47:51;;;;;;;8.40;4.75;;;;;;;;;;7370433;19;20686;-65
2023/04/22 09:50:19;;;;;;;8.05;4.90;;;;;;;;;;7370474;19;20052;-66
2023/04/22 09:52:53;;;;;;;7.40;5.10;;;;;;;;;;7369995;19;20014;-62
2023/04/22 09:55:20;;;;;;;9.85;5.60;;;;;;;;;;7367760;19;20011;-64
2023/04/22 09:57:46;;;;;;;7.78;5.30;;;;;;;;;;7387742;19;20473;-64
2023/04/22 10:00:12;;;;;;;10.85;5.50;;;;;;;;;;7366599;19;20022;-68
2023/04/22 10:02:38;;;;;;;9.05;5.10;;;;;;;;;;7373509;19;20027;-63
2023/04/22 10:05:04;;;;;;;7.68;4.93;;;;;;;;;;7370329;19;20744;-63
2023/04/22 10:07:30;;;;;;;7.38;4.10;;;;;;;;;;7366329;19;20019;-61
2023/04/22 10:09:56;;;;;;;10.45;5.15;;;;;;;;;;7369703;19;20026;-64
2023/04/22 10:12:22;;;;;;;9.85;4.63;;;;;;;;;;7390706;19;20029;-61
2023/04/22 10:14:47;;;;;;;8.85;4.22;;;;;;;;;;7367609;19;20063;-61
2023/04/22 10:17:13;;;;;;;8.30;4.68;;;;;;;;;;7369440;19;20432;-63
2023/04/22 10:19:40;;;;;;;6.70;4.38;;;;;;;;;;7374794;19;20010;-63
2023/04/22 10:22:06;;;;;;;8.35;5.10;;;;;;;;;;7374638;19;20476;-63
2023/04/22 10:24:38;;;;;;;6.07;4.07;;;;;;;;;;7395704;19;20626;-62
2023/04/22 10:27:07;;;;;;;11.10;4.10;;;;;;;;;;7372432;19;20147;-62
2023/04/22 10:29:41;;;;;;;8.38;4.95;;;;;;;;;;7372246;19;20086;-63
2023/04/22 10:32:10;;;;;;;6.90;4.32;;;;;;;;;;7373611;19;20015;-63
2023/04/22 10:34:37;;;;;;;7.07;4.07;;;;;;;;;;7368628;19;20003;-65
2023/04/22 10:37:08;;;;;;;6.88;3.70;;;;;;;;;;7367251;19;20016;-62
2023/04/22 10:39:33;;;;;;;;;;;;;;;;;;7392336;19;20012;-60
2023/04/22 10:42:02;;;;;;;7.60;4.15;;;;;;;;;;7369284;19;19936;-63
2023/04/22 10:44:29;;;;;;;6.75;4.15;;;;;;;;;;7370633;19;20002;-62
2023/04/22 10:46:56;;;;;;;7.28;4.63;;;;;;;;;;7370504;19;20082;-62
2023/04/22 10:49:25;;;;;;;6.40;4.30;;;;;;;;;;7372095;19;20011;-62
2023/04/22 10:51:59;;;;;;;5.90;4.37;;;;;;;;;;7381113;19;20006;-60
2023/04/22 10:54:27;;;;;;;7.70;3.53;;;;;;;;;;7396318;19;20006;-61
2023/04/22 10:57:18;;;;;;;7.63;3.33;;;;;;;;;;7366831;19;20081;-60
2023/04/22 10:59:47;;;;;;;5.30;3.20;;;;;;;;;;7373093;19;20006;-61
2023/04/22 11:02:15;;;;;;;6.75;3.22;;;;;;;;;;7367966;19;20125;-59
2023/04/22 11:04:41;;;;;;;5.00;3.03;;;;;;;;;;7367369;19;20124;-62
2023/04/22 11:07:25;;;;;;;5.80;3.30;;;;;;;;;;7364128;19;20014;-61
2023/04/22 11:10:03;;;;;;;5.40;3.17;;;;;;;;;;7390021;19;20002;-64
2023/04/22 11:12:34;;;;;;;5.22;2.97;;;;;;;;;;7393290;19;20074;-62
2023/04/22 11:15:12;;;;;;;8.20;3.40;;;;;;;;;;7371764;19;20087;-62
2023/04/22 11:17:39;;;;;;;5.38;2.90;;;;;;;;;;7366618;19;20135;-62
2023/04/22 11:20:06;;;;;;;5.20;2.83;;;;;;;;;;7371753;19;20011;-62
2023/04/22 11:22:42;;;;;;;5.60;2.72;;;;;;;;;;7374001;19;20014;-61
2023/04/22 11:25:09;;;;;;;5.10;2.53;;;;;;;;;;7372041;19;20010;-61
2023/04/22 11:27:35;;;;;;;4.57;2.65;;;;;;;;;;7389435;19;19999;-63
2023/04/22 11:30:01;;;;;;;5.15;2.60;;;;;;;;;;7370984;19;20041;-62
2023/04/22 11:32:27;;;;;;;3.35;2.10;;;;;;;;;;7371563;19;20007;-61
2023/04/22 11:34:53;;;;;;;5.10;2.38;;;;;;;;;;7372605;19;20027;-62
2023/04/22 11:37:18;;;;;;;3.70;2.13;;;;;;;;;;7383352;19;20007;-62
2023/04/22 11:39:44;;;;;;;4.68;2.35;;;;;;;;;;7403005;19;20002;-66
2023/04/22 11:42:11;;;;;;;4.03;2.33;;;;;;;;;;7385475;19;20011;-66
2023/04/22 11:44:38;;;;;;;4.18;2.22;;;;;;;;;;7382502;19;19998;-66
2023/04/22 11:47:03;;;;;;;5.38;2.40;;;;;;;;;;7379557;19;20619;-66
2023/04/22 11:49:31;;;;;;;4.93;2.30;;;;;;;;;;7367679;19;20003;-70
2023/04/22 11:51:57;;;;;;;6.07;2.60;;;;;;;;;;7368938;19;20003;-69
2023/04/22 11:54:49;;;;;;;5.60;2.80;;;;;;;;;;7389673;19;20020;-68
2023/04/22 11:57:15;;;;;;;5.93;3.15;;;;;;;;;;7368280;19;20457;-69
2023/04/22 11:59:41;;;;;;;4.63;2.80;;;;;;;;;;7368841;19;20062;-69
2023/04/22 12:02:07;;;;;;;3.70;2.20;;;;;;;;;;7373429;19;20002;-68
2023/04/22 12:04:39;;;;;;;3.70;2.40;;;;;;;;;;7378578;19;20051;-68
2023/04/22 12:07:05;;;;;;;7.55;2.60;;;;;;;;;;7375202;19;20022;-69
2023/04/22 12:09:30;;;;;;;6.45;2.45;;;;;;;;;;7397464;19;20006;-69
2023/04/22 12:11:55;;;;;;;5.78;2.90;;;;;;;;;;7372831;19;20613;-69
2023/04/22 12:14:30;;;;;;;6.32;2.40;;;;;;;;;;7369961;19;20022;-70
2023/04/22 12:16:56;;;;;;;5.72;2.30;;;;;;;;;;7367174;19;20508;-69
2023/04/22 12:19:25;;;;;;;4.20;2.10;;;;;;;;;;7370940;19;20107;-70
2023/04/22 12:21:55;;;;;;;6.43;2.63;;;;;;;;;;7383030;19;20017;-69
2023/04/22 12:24:26;;;;;;;6.35;2.40;;;;;;;;;;7391212;19;20041;-70
2023/04/22 12:26:52;;;;;;;5.13;2.50;;;;;;;;;;7365966;19;20010;-70
2023/04/22 12:29:25;;;;;;;3.83;2.30;;;;;;;;;;7370367;19;20017;-69
2023/04/22 12:31:51;;;;;;;4.53;2.17;;;;;;;;;;7371081;19;20039;-70
2023/04/22 12:34:16;;;;;;;3.65;2.10;;;;;;;;;;7368873;19;20006;-69
2023/04/22 12:36:41;;;;;;;4.00;1.98;;;;;;;;;;7388669;19;20670;-71
2023/04/22 12:39:07;;;;;;;5.75;1.77;;;;;;;;;;7365066;19;20014;-70
2023/04/22 12:41:32;;;;;;;6.30;2.00;;;;;;;;;;7366392;19;20014;-70
2023/04/22 12:43:57;;;;;;;3.38;2.00;;;;;;;;;;7367884;19;20042;-68
2023/04/22 12:46:23;;;;;;;8.15;2.20;;;;;;;;;;7367310;19;20014;-70
2023/04/22 12:48:48;;;;;;;3.72;2.00;;;;;;;;;;7386337;19;20011;-68
2023/04/22 12:51:13;;;;;;;8.85;2.33;;;;;;;;;;7369544;19;20007;-69
2023/04/22 12:53:39;;;;;;;4.57;2.05;;;;;;;;;;7365690;19;20010;-69
2023/04/22 12:56:04;;;;;;;3.90;1.55;;;;;;;;;;7366061;19;20018;-69
2023/04/22 12:58:29;;;;;;;3.08;1.80;;;;;;;;;;7367127;19;20015;-70
2023/04/22 13:00:55;;;;;;;4.57;1.75;;;;;;;;;;7370289;19;19995;-71
2023/04/22 13:03:20;;;;;;;6.00;2.25;;;;;;;;;;7392491;19;20003;-67
2023/04/22 13:05:46;;;;;;;6.05;2.00;;;;;;;;;;7368307;19;20014;-71
2023/04/22 13:08:11;;;;;;;4.85;1.90;;;;;;;;;;7368958;19;20002;-71
2023/04/22 13:10:36;;;;;;;5.75;1.92;;;;;;;;;;7369402;19;20006;-71
2023/04/22 13:13:03;;;;;;;9.13;3.58;;;;;;;;;;7371274;19;20003;-72
2023/04/22 13:15:29;;;;;;;4.35;2.30;;;;;;;;;;7390478;19;20006;-72
2023/04/22 13:17:54;;;;;;;5.78;1.90;;;;;;;;;;7366723;19;20009;-71
2023/04/22 13:20:19;;;;;;;5.18;2.03;;;;;;;;;;7369364;19;19998;-71
2023/04/22 13:22:46;;;;;;;2.75;2.03;;;;;;;;;;7365028;19;20110;-71
2023/04/22 13:25:11;;;;;;;9.38;2.10;;;;;;;;;;7364540;19;20385;-71
2023/04/22 13:27:37;;;;;;;3.25;1.88;;;;;;;;;;7383686;19;20011;-71
2023/04/22 13:30:03;;;;;;;4.45;1.85;;;;;;;;;;7366500;19;20019;-71
2023/04/22 13:32:28;;;;;;;3.05;1.67;;;;;;;;;;7364020;19;20043;-71
2023/04/22 13:34:54;;;;;;;3.53;1.80;;;;;;;;;;7368462;19;20010;-71
2023/04/22 13:37:20;;;;;;;5.05;1.70;;;;;;;;;;7360042;19;20488;-73
2023/04/22 13:39:46;;;;;;;6.82;2.00;;;;;;;;;;7388141;19;20020;-70
2023/04/22 13:42:12;;;;;;;4.88;1.75;;;;;;;;;;7367491;19;20070;-70
2023/04/22 13:44:37;;;;;;;5.35;1.90;;;;;;;;;;7365203;19;20064;-69
2023/04/22 13:47:03;;;;;;;3.45;1.75;;;;;;;;;;7370346;19;20010;-68
2023/04/22 13:49:28;;;;;;;4.10;1.90;;;;;;;;;;7375187;19;20118;-68
2023/04/22 13:51:54;;;;;;;4.20;1.75;;;;;;;;;;7380729;19;20011;-68
2023/04/22 13:54:19;;;;;;;3.58;1.88;;;;;;;;;;7394953;19;20435;-68
2023/04/22 13:56:45;;;;;;;4.00;1.98;;;;;;;;;;7371453;19;20593;-68
2023/04/22 13:59:10;;;;;;;2.88;1.70;;;;;;;;;;7374476;19;20002;-68
2023/04/22 14:01:36;;;;;;;5.18;1.90;;;;;;;;;;7371827;19;20010;-67
2023/04/22 14:04:02;;;;;;;2.42;1.75;;;;;;;;;;7372719;19;20517;-68
2023/04/22 14:06:27;;;;;;;5.65;1.95;;;;;;;;;;7393815;19;20018;-67
2023/04/22 14:08:52;;;;;;;2.47;1.52;;;;;;;;;;7371858;19;20007;-68
2023/04/22 14:11:18;;;;;;;3.90;1.92;;;;;;;;;;7373830;19;20006;-68
2023/04/22 14:13:44;;;;;;;5.85;2.00;;;;;;;;;;7373645;19;20033;-68
2023/04/22 14:16:10;;;;;;;6.68;2.10;;;;;;;;;;7378537;19;20030;-68
2023/04/22 14:18:36;;;;;;;5.13;2.10;;;;;;;;;;7398366;19;20412;-69
2023/04/22 14:21:05;;;;;;;3.85;1.92;;;;;;;;;;7371966;19;20014;-68
2023/04/22 14:23:31;;;;;;;3.63;1.98;;;;;;;;;;7372334;19;20578;-69
2023/04/22 14:25:56;;;;;;;3.08;1.98;;;;;;;;;;7370205;19;20101;-69
2023/04/22 14:28:21;;;;;;;4.95;2.40;;;;;;;;;;7372750;19;20042;-68
2023/04/22 14:30:47;;;;;;;4.95;2.05;;;;;;;;;;7393002;19;20098;-68
2023/04/22 14:33:12;;;;;;;3.65;2.28;;;;;;;;;;7369376;19;20002;-67